createdAt,value
2022-09-04T03:02:50.814Z,13.80
2022-09-04T03:05:33.270Z,13.70
2022-09-04T03:08:25.340Z,13.70
2022-09-04T03:11:02.040Z,13.70
2022-09-04T03:13:53.224Z,13.70
2022-09-04T03:16:40.060Z,13.70
2022-09-04T03:19:24.327Z,13.60
2022-09-04T03:22:10.871Z,13.40
2022-09-04T03:25:01.874Z,13.30
2022-09-04T03:27:35.292Z,13.40
2022-09-04T03:30:13.330Z,13.30
2022-09-04T03:33:05.994Z,13.30
2022-09-04T03:35:55.223Z,13.30
2022-09-04T03:39:02.552Z,13.30
2022-09-04T03:42:05.078Z,13.20
2022-09-04T03:44:41.271Z,13.20
2022-09-04T03:47:27.205Z,13.20
2022-09-04T03:50:19.473Z,13.20
2022-09-04T03:53:01.041Z,13.20
2022-09-04T03:55:46.342Z,13.20
2022-09-04T03:58:50.868Z,13.20
2022-09-04T04:01:42.006Z,13.20
2022-09-04T04:04:34.250Z,13.20
2022-09-04T04:07:33.098Z,13.20
2022-09-04T04:10:21.828Z,13.20
2022-09-04T04:13:14.814Z,13.10
2022-09-04T04:15:59.160Z,13.10
2022-09-04T04:19:10.856Z,13.10
2022-09-04T04:22:07.606Z,13.10
2022-09-04T04:24:49.503Z,13.00
2022-09-04T04:27:46.474Z,13.00
2022-09-04T04:30:19.576Z,13.00
2022-09-04T04:32:55.469Z,12.90
2022-09-04T04:36:01.544Z,12.90
2022-09-04T04:38:31.734Z,12.80
2022-09-04T04:41:24.829Z,12.80
2022-09-04T04:43:59.724Z,12.80
2022-09-04T04:47:15.699Z,12.80
2022-09-04T04:50:00.166Z,12.80
2022-09-04T04:53:18.934Z,12.90
2022-09-04T04:56:23.187Z,12.90
2022-09-04T04:58:59.455Z,12.90
2022-09-04T05:01:50.464Z,13.00
2022-09-04T05:04:18.058Z,13.00
2022-09-04T05:07:23.881Z,13.10
2022-09-04T05:13:24.098Z,13.40
2022-09-04T05:16:09.685Z,13.30
2022-09-04T05:18:58.713Z,13.30
2022-09-04T05:21:58.394Z,13.40
2022-09-04T05:24:45.966Z,13.50
2022-09-04T05:27:49.662Z,13.50
2022-09-04T05:34:01.227Z,13.70
2022-09-04T05:37:57.419Z,13.80
2022-09-04T05:40:50.003Z,13.90
2022-09-04T05:43:27.427Z,14.00
2022-09-04T05:45:57.605Z,14.30
2022-09-04T05:48:31.107Z,14.60
2022-09-04T05:51:05.545Z,15.10
2022-09-04T05:53:56.210Z,15.40
2022-09-04T05:56:36.261Z,15.70
2022-09-04T05:59:27.944Z,16.10
2022-09-04T06:02:30.375Z,17.10
2022-09-04T06:04:57.657Z,17.90
2022-09-04T06:08:01.675Z,18.60
2022-09-04T06:10:40.744Z,19.10
2022-09-04T06:13:19.699Z,19.10
2022-09-04T06:16:29.603Z,19.00
2022-09-04T06:18:59.918Z,19.10
2022-09-04T06:21:54.749Z,19.10
2022-09-04T06:25:05.060Z,19.80
2022-09-04T06:28:13.520Z,19.40
2022-09-04T06:30:49.094Z,19.40
2022-09-04T06:33:23.514Z,19.60
2022-09-04T06:36:15.775Z,19.70
2022-09-04T06:38:53.959Z,20.70
2022-09-04T06:42:05.268Z,21.40
2022-09-04T06:44:41.180Z,21.90
2022-09-04T06:47:26.187Z,22.70
2022-09-04T06:50:02.057Z,22.40
2022-09-04T06:52:38.868Z,22.90
2022-09-04T06:55:33.422Z,23.30
2022-09-04T06:58:43.050Z,22.90
2022-09-04T07:01:31.135Z,21.90
2022-09-04T07:04:21.427Z,22.70
2022-09-04T07:07:10.894Z,23.40
2022-09-04T07:09:47.128Z,23.80
2022-09-04T07:12:20.460Z,23.40
2022-09-04T07:15:15.317Z,23.60
2022-09-04T07:18:20.300Z,23.80
2022-09-04T07:21:19.793Z,23.20
2022-09-04T07:24:33.959Z,23.20
2022-09-04T07:27:34.903Z,23.80
2022-09-04T07:30:08.235Z,23.00
2022-09-04T07:32:58.797Z,24.20
2022-09-04T07:35:36.927Z,25.00
2022-09-04T07:38:34.919Z,26.10
2022-09-04T07:41:13.213Z,27.10
2022-09-04T07:43:54.674Z,27.70
2022-09-04T07:46:52.578Z,27.50
2022-09-04T07:49:39.543Z,27.60
2022-09-04T07:52:14.528Z,28.00
2022-09-04T07:55:00.257Z,27.50
2022-09-04T07:57:33.068Z,27.80
2022-09-04T08:00:02.782Z,27.00
2022-09-04T08:02:58.933Z,26.20
2022-09-04T08:05:57.992Z,26.80
2022-09-04T08:08:42.872Z,27.40
2022-09-04T08:11:41.233Z,27.90
2022-09-04T08:14:23.447Z,28.50
2022-09-04T08:17:25.221Z,29.40
2022-09-04T08:20:31.326Z,29.30
2022-09-04T08:23:07.364Z,29.50
2022-09-04T08:25:52.969Z,29.50
2022-09-04T08:28:25.717Z,30.00
2022-09-04T08:31:09.064Z,30.30
2022-09-04T08:33:54.076Z,30.20
2022-09-04T08:36:24.680Z,29.90
2022-09-04T08:39:23.743Z,30.10
2022-09-04T08:42:13.961Z,30.10
2022-09-04T08:45:11.845Z,30.50
2022-09-04T08:47:49.314Z,30.80
2022-09-04T08:50:31.354Z,30.70
2022-09-04T08:53:25.833Z,30.70
2022-09-04T08:56:06.323Z,29.50
2022-09-04T08:58:47.058Z,29.70
2022-09-04T09:01:21.404Z,29.80
2022-09-04T09:04:43.918Z,29.70
2022-09-04T09:07:40.295Z,29.30
2022-09-04T09:10:22.260Z,28.20
2022-09-04T09:13:07.532Z,28.10
2022-09-04T09:15:39.067Z,27.30
2022-09-04T09:18:33.840Z,26.70
2022-09-04T09:21:10.436Z,26.20
2022-09-04T09:24:04.634Z,25.80
2022-09-04T09:26:44.808Z,25.50
2022-09-04T09:29:26.131Z,25.40
2022-09-04T09:31:53.355Z,25.20
2022-09-04T09:34:47.665Z,25.10
2022-09-04T09:37:39.286Z,24.90
2022-09-04T09:40:24.518Z,24.70
2022-09-04T09:43:10.056Z,24.50
2022-09-04T09:46:14.332Z,24.50
2022-09-04T09:49:19.080Z,24.50
2022-09-04T09:52:23.233Z,24.30
2022-09-04T09:55:05.009Z,24.40
2022-09-04T09:58:21.529Z,24.50
2022-09-04T10:00:59.035Z,24.60
2022-09-04T10:04:11.683Z,24.50
2022-09-04T10:06:57.240Z,24.40
2022-09-04T10:09:42.693Z,24.40
2022-09-04T10:12:36.400Z,24.40
2022-09-04T10:15:22.476Z,24.60
2022-09-04T10:18:23.061Z,24.90
2022-09-04T10:21:28.437Z,25.20
2022-09-04T10:24:01.159Z,25.40
2022-09-04T10:27:02.125Z,25.50
2022-09-04T10:29:37.870Z,25.50
2022-09-04T10:32:19.356Z,25.30
2022-09-04T10:35:21.906Z,25.40
2022-09-04T10:38:03.877Z,25.40
2022-09-04T10:41:10.390Z,25.60
2022-09-04T10:43:46.632Z,25.70
2022-09-04T10:46:50.772Z,25.70
2022-09-04T10:49:38.456Z,25.50
2022-09-04T10:52:35.538Z,24.90
2022-09-04T10:55:14.835Z,25.10
2022-09-04T10:57:59.858Z,24.90
2022-09-04T11:00:54.715Z,25.00
2022-09-04T11:03:38.221Z,24.80
2022-09-04T11:06:43.414Z,24.70
2022-09-04T11:09:26.549Z,24.50
2022-09-04T11:11:53.682Z,24.50
2022-09-04T11:14:33.909Z,24.50
2022-09-04T11:17:39.785Z,24.30
2022-09-04T11:20:23.997Z,24.10
2022-09-04T11:23:15.773Z,24.10
2022-09-04T11:26:14.875Z,24.30
2022-09-04T11:28:57.105Z,24.50
2022-09-04T11:31:30.203Z,24.50
2022-09-04T11:34:20.149Z,24.30
2022-09-04T11:37:05.323Z,24.40
2022-09-04T11:40:03.483Z,24.60
2022-09-04T11:42:41.205Z,24.70
2022-09-04T11:45:08.366Z,24.40
2022-09-04T11:48:12.998Z,24.30
2022-09-04T11:51:33.092Z,24.30
2022-09-04T11:54:28.929Z,24.30
2022-09-04T11:57:25.134Z,24.50
2022-09-04T12:00:07.905Z,24.70
2022-09-04T12:03:19.051Z,24.70
2022-09-04T12:06:03.561Z,24.70
2022-09-04T12:08:58.780Z,24.90
2022-09-04T12:11:39.902Z,25.00
2022-09-04T12:14:31.485Z,25.10
2022-09-04T12:17:36.347Z,25.30
2022-09-04T12:20:30.925Z,25.20
2022-09-04T12:23:20.654Z,25.20
2022-09-04T12:26:12.451Z,25.00
2022-09-04T12:29:17.213Z,25.00
2022-09-04T12:32:12.683Z,25.10
2022-09-04T12:34:55.128Z,25.20
2022-09-04T12:38:00.683Z,25.30
2022-09-04T12:40:46.507Z,25.20
2022-09-04T12:43:16.663Z,25.10
2022-09-04T12:46:05.863Z,25.00
2022-09-04T12:48:52.003Z,25.20
2022-09-04T12:51:28.579Z,25.20
2022-09-04T12:54:19.936Z,25.20
2022-09-04T12:56:54.061Z,25.00
2022-09-04T12:59:45.698Z,24.70
2022-09-04T13:03:00.067Z,24.50
2022-09-04T13:06:05.386Z,24.30
2022-09-04T13:08:53.665Z,24.50
2022-09-04T13:11:29.758Z,24.50
2022-09-04T13:14:16.723Z,24.60
2022-09-04T13:17:03.696Z,24.70
2022-09-04T13:19:45.954Z,24.70
2022-09-04T13:22:39.449Z,24.70
2022-09-04T13:25:52.352Z,24.70
2022-09-04T13:28:37.171Z,24.70
2022-09-04T13:31:19.684Z,24.60
2022-09-04T13:34:13.294Z,24.40
2022-09-04T13:36:58.240Z,24.40
2022-09-04T13:39:31.564Z,24.50
2022-09-04T13:42:01.766Z,24.60
2022-09-04T13:44:31.732Z,24.60
2022-09-04T13:47:12.167Z,24.50
2022-09-04T13:49:48.079Z,24.50
2022-09-04T13:52:27.795Z,24.50
2022-09-04T13:55:24.959Z,24.50
2022-09-04T13:58:01.438Z,24.50
2022-09-04T14:00:32.090Z,24.50
2022-09-04T14:03:07.434Z,24.60
2022-09-04T14:05:37.546Z,24.70
2022-09-04T14:08:12.791Z,24.70
2022-09-04T14:10:50.751Z,24.70
2022-09-04T14:13:36.144Z,24.70
2022-09-04T14:16:11.599Z,24.80
2022-09-04T14:18:45.313Z,24.90
2022-09-04T14:21:33.256Z,24.90
2022-09-04T14:24:11.048Z,24.90
2022-09-04T14:27:01.317Z,24.80
2022-09-04T14:29:36.107Z,24.80
2022-09-04T14:32:18.664Z,25.00
2022-09-04T14:35:08.501Z,25.00
2022-09-04T14:38:14.211Z,25.00
2022-09-04T14:40:56.698Z,25.20
2022-09-04T14:43:45.168Z,25.20
2022-09-04T14:46:51.307Z,25.30
2022-09-04T14:49:23.992Z,25.30
2022-09-04T14:51:56.460Z,25.30
2022-09-04T14:54:28.325Z,25.30
2022-09-04T14:57:01.260Z,25.30
2022-09-04T15:00:01.358Z,25.20
2022-09-04T15:02:42.424Z,25.30
2022-09-04T15:05:28.553Z,25.30
2022-09-04T15:07:59.926Z,25.30
2022-09-04T15:10:36.048Z,25.40
2022-09-04T15:13:21.103Z,25.30
2022-09-04T15:15:54.782Z,25.30
2022-09-04T15:18:43.792Z,25.30
2022-09-04T15:21:29.410Z,25.30
2022-09-04T15:24:24.476Z,25.30
2022-09-04T15:27:05.629Z,25.40
2022-09-04T15:29:51.424Z,25.50
2022-09-04T15:32:31.769Z,25.50
2022-09-04T15:35:13.023Z,25.60
2022-09-04T15:37:48.348Z,25.50
2022-09-04T15:40:28.411Z,25.40
2022-09-04T15:43:10.069Z,25.30
2022-09-04T15:45:48.137Z,25.20
2022-09-04T15:48:53.884Z,25.20
2022-09-04T15:51:37.574Z,25.20
2022-09-04T15:54:10.752Z,25.20
2022-09-04T15:56:46.248Z,25.10
2022-09-04T15:59:18.464Z,25.00
2022-09-04T16:01:48.632Z,25.00
2022-09-04T16:04:43.026Z,25.00
2022-09-04T16:07:19.629Z,24.90
2022-09-04T16:10:01.745Z,24.90
2022-09-04T16:13:00.837Z,24.80
2022-09-04T16:16:04.253Z,24.70
2022-09-04T16:18:35.081Z,24.60
2022-09-04T16:21:10.947Z,24.50
2022-09-04T16:23:39.201Z,24.40
2022-09-04T16:26:22.936Z,24.30
2022-09-04T16:29:03.395Z,24.30
2022-09-04T16:31:35.353Z,24.20
2022-09-04T16:34:13.681Z,24.20
2022-09-04T16:37:05.119Z,24.10
2022-09-04T16:40:13.854Z,24.00
2022-09-04T16:42:50.935Z,24.00
2022-09-04T16:45:25.449Z,24.00
2022-09-04T16:48:09.635Z,23.90
2022-09-04T16:50:58.916Z,23.80
2022-09-04T16:53:46.489Z,23.80
2022-09-04T16:56:37.227Z,23.70
2022-09-04T16:59:41.569Z,23.50
2022-09-04T17:02:37.632Z,23.50
2022-09-04T17:05:35.081Z,23.40
2022-09-04T17:08:17.032Z,23.30
2022-09-04T17:10:49.991Z,23.10
2022-09-04T17:13:29.376Z,23.20
2022-09-04T17:16:24.801Z,23.00
2022-09-04T17:18:54.601Z,22.90
2022-09-04T17:28:09.386Z,22.80
2022-09-04T17:29:11.747Z,22.70
2022-09-04T17:29:22.448Z,22.60
2022-09-04T17:30:44.531Z,22.50
2022-09-04T17:39:15.554Z,22.50
2022-09-04T17:40:44.397Z,22.40
2022-09-04T17:40:53.993Z,22.30
2022-09-04T17:43:21.445Z,22.20
2022-09-04T17:46:15.717Z,22.10
2022-09-04T17:48:44.924Z,22.10
2022-09-04T17:51:21.561Z,22.00
2022-09-04T17:53:52.827Z,21.90
2022-09-04T17:56:46.032Z,21.80
2022-09-04T17:59:37.598Z,21.70
2022-09-04T18:02:34.825Z,21.60
2022-09-04T18:05:21.275Z,21.60
2022-09-04T18:08:11.753Z,21.50
2022-09-04T18:10:57.635Z,21.30
2022-09-04T18:13:38.030Z,21.30
2022-09-04T18:16:40.548Z,21.20
2022-09-04T18:19:28.386Z,21.20
2022-09-04T18:22:26.532Z,21.10
2022-09-04T18:25:29.244Z,21.10
2022-09-04T18:28:06.097Z,20.90
2022-09-04T18:37:07.217Z,20.80
2022-09-04T18:37:18.211Z,20.70
2022-09-04T18:37:44.165Z,20.60
2022-09-04T18:40:16.046Z,20.40
2022-09-04T18:50:35.289Z,19.90
2022-09-04T18:50:40.614Z,20.10
2022-09-04T18:50:43.340Z,19.80
2022-09-04T18:52:00.475Z,19.60
2022-09-04T18:54:49.991Z,19.50
2022-09-04T18:57:33.587Z,19.40
2022-09-04T19:00:11.055Z,19.30
2022-09-04T19:02:51.473Z,19.20
2022-09-04T19:05:24.236Z,19.10
2022-09-04T19:07:59.049Z,19.10
2022-09-04T19:10:37.285Z,19.00
2022-09-04T19:13:10.013Z,18.90
2022-09-04T19:16:07.430Z,18.90
2022-09-04T19:18:50.248Z,18.80
2022-09-04T19:21:17.384Z,18.70
2022-09-04T19:23:53.164Z,18.70
2022-09-04T19:26:32.905Z,18.60
2022-09-04T19:29:21.930Z,18.50
2022-09-04T19:32:20.491Z,18.50
2022-09-04T19:35:19.105Z,18.40
2022-09-04T19:42:15.573Z,18.30
2022-09-04T19:46:09.036Z,18.20
2022-09-04T19:46:16.323Z,18.10
2022-09-04T19:47:28.841Z,18.10
2022-09-04T19:53:35.187Z,18.10
2022-09-04T19:53:37.349Z,18.00
2022-09-04T19:56:19.361Z,18.00
2022-09-04T19:58:57.882Z,18.00
2022-09-04T20:01:31.209Z,17.80
2022-09-04T20:04:20.239Z,17.70
2022-09-04T20:06:50.809Z,17.70
2022-09-04T20:09:37.336Z,17.50
2022-09-04T20:12:28.297Z,17.40
2022-09-04T20:15:18.241Z,17.30
2022-09-04T20:18:09.969Z,17.30
2022-09-04T20:20:46.240Z,17.30
2022-09-04T20:23:34.298Z,17.30
2022-09-04T20:26:19.854Z,17.30
2022-09-04T20:29:24.668Z,17.30
2022-09-04T20:32:27.559Z,17.20
2022-09-04T20:35:33.351Z,17.10
2022-09-04T20:38:30.564Z,17.10
2022-09-04T20:41:27.451Z,16.90
2022-09-04T20:44:15.737Z,16.90
2022-09-04T20:52:44.477Z,16.80
2022-09-04T20:52:51.602Z,16.80
2022-09-04T20:53:37.289Z,16.80
2022-09-04T20:57:21.548Z,16.70
2022-09-04T21:03:14.935Z,16.60
